Time;durP1;ratioP1;P1;durP2;ratioP2;P2;SDS_P1;SDS_P2;PMS_P1;PMS_P2;Temp;Humidity;BMP_temperature;BMP_pressure;BME280_temperature;BME280_humidity;BME280_pressure;Samples;Min_cycle;Max_cycle;Signal;HPM_P1;HPM_P2
2021/11/05 00:01:30;;;;;;;3.53;2.47;;;;;;;;;;4992419;28;20050;-68
2021/11/05 00:03:56;;;;;;;2.95;2.30;;;;;;;;;;4992363;28;20069;-68
2021/11/05 00:06:24;;;;;;;3.00;2.50;;;;;;;;;;4992603;28;20050;-68
2021/11/05 00:08:51;;;;;;;2.58;2.38;;;;;;;;;;4992237;28;20046;-68
2021/11/05 00:11:17;;;;;;;4.85;2.80;;;;;;;;;;4992285;28;20489;-68
2021/11/05 00:13:44;;;;;;;3.15;2.65;;;;;;;;;;4992298;28;20101;-68
2021/11/05 00:16:11;;;;;;;4.30;2.97;;;;;;;;;;4992294;28;20050;-68
2021/11/05 00:18:38;;;;;;;3.00;2.70;;;;;;;;;;5009255;28;20136;-68
2021/11/05 00:21:04;;;;;;;3.53;3.00;;;;;;;;;;5011912;28;20512;-68
2021/11/05 00:23:31;;;;;;;3.00;2.40;;;;;;;;;;5011837;28;20111;-68
2021/11/05 00:25:57;;;;;;;4.10;2.83;;;;;;;;;;5011917;28;20054;-68
2021/11/05 00:28:24;;;;;;;7.43;3.00;;;;;;;;;;5011871;28;20050;-68
2021/11/05 00:30:51;;;;;;;3.13;2.75;;;;;;;;;;5011928;28;20046;-68
2021/11/05 00:33:17;;;;;;;3.05;2.72;;;;;;;;;;5011772;28;20058;-68
2021/11/05 00:35:44;;;;;;;3.00;2.70;;;;;;;;;;5004085;28;20100;-69
2021/11/05 00:38:10;;;;;;;3.20;2.78;;;;;;;;;;4995391;28;20046;-68
2021/11/05 00:40:37;;;;;;;2.95;2.63;;;;;;;;;;5011642;28;20104;-68
2021/11/05 00:43:04;;;;;;;2.70;2.50;;;;;;;;;;5011554;28;20468;-68
2021/11/05 00:45:30;;;;;;;3.53;3.00;;;;;;;;;;5006410;28;20058;-68
2021/11/05 00:47:57;;;;;;;4.45;4.05;;;;;;;;;;4992084;28;20120;-68
2021/11/05 00:50:24;;;;;;;3.13;2.83;;;;;;;;;;4992174;28;20124;-68
2021/11/05 00:52:54;;;;;;;4.43;2.92;;;;;;;;;;4991895;28;20081;-68
2021/11/05 00:55:20;;;;;;;4.53;3.15;;;;;;;;;;4996423;28;20041;-69
2021/11/05 00:57:47;;;;;;;3.15;2.85;;;;;;;;;;5011798;28;20046;-68
2021/11/05 01:00:15;;;;;;;3.25;2.95;;;;;;;;;;5011544;28;20159;-68
2021/11/05 01:02:41;;;;;;;4.88;3.55;;;;;;;;;;5011548;28;20053;-68
2021/11/05 01:05:09;;;;;;;4.20;3.10;;;;;;;;;;5009259;28;20045;-68
2021/11/05 01:07:36;;;;;;;3.63;3.33;;;;;;;;;;4990701;28;20543;-68
2021/11/05 01:10:03;;;;;;;3.78;3.30;;;;;;;;;;4991969;28;20047;-68
2021/11/05 01:12:30;;;;;;;4.07;3.60;;;;;;;;;;4991821;28;20101;-69
2021/11/05 01:14:57;;;;;;;3.47;3.15;;;;;;;;;;4991826;28;20252;-69
2021/11/05 01:17:23;;;;;;;3.92;3.53;;;;;;;;;;4991842;28;20057;-69
2021/11/05 01:19:50;;;;;;;3.55;3.25;;;;;;;;;;4991922;28;20097;-68
2021/11/05 01:22:17;;;;;;;5.50;3.42;;;;;;;;;;4994183;28;20059;-68
2021/11/05 01:24:43;;;;;;;4.80;3.67;;;;;;;;;;4995458;28;20077;-68
2021/11/05 01:27:10;;;;;;;5.30;3.78;;;;;;;;;;5016579;28;20049;-68
2021/11/05 01:29:37;;;;;;;4.47;3.67;;;;;;;;;;5034931;28;20050;-69
2021/11/05 01:32:04;;;;;;;5.60;3.88;;;;;;;;;;5027213;28;20050;-68
2021/11/05 01:34:31;;;;;;;5.50;3.65;;;;;;;;;;5018918;28;20120;-69
2021/11/05 01:36:57;;;;;;;4.50;4.10;;;;;;;;;;5022457;28;20508;-69
2021/11/05 01:39:24;;;;;;;4.53;3.60;;;;;;;;;;5023834;28;20046;-68
2021/11/05 01:41:51;;;;;;;4.60;4.13;;;;;;;;;;5023096;28;20428;-69
2021/11/05 01:44:24;;;;;;;4.20;3.80;;;;;;;;;;5030443;28;20081;-69
2021/11/05 01:46:51;;;;;;;4.55;4.13;;;;;;;;;;5034844;28;20406;-68
2021/11/05 01:49:18;;;;;;;4.55;4.07;;;;;;;;;;5034395;28;20050;-69
2021/11/05 01:51:45;;;;;;;4.25;3.85;;;;;;;;;;5033758;28;20037;-68
2021/11/05 01:54:12;;;;;;;4.63;3.70;;;;;;;;;;5033516;28;20077;-69
2021/11/05 01:56:40;;;;;;;5.00;3.75;;;;;;;;;;5022356;28;20058;-69
2021/11/05 01:59:28;;;;;;;5.85;4.50;;;;;;;;;;5015045;28;20149;-68
2021/11/05 02:01:56;;;;;;;6.50;4.32;;;;;;;;;;5014380;28;20085;-68
2021/11/05 02:04:23;;;;;;;5.55;4.45;;;;;;;;;;5015312;28;20050;-68
2021/11/05 02:06:51;;;;;;;4.43;4.03;;;;;;;;;;5013990;28;20116;-69
2021/11/05 02:09:21;;;;;;;5.60;4.63;;;;;;;;;;5013941;28;20100;-69
2021/11/05 02:11:49;;;;;;;4.80;4.22;;;;;;;;;;5009233;28;20050;-68
2021/11/05 02:14:18;;;;;;;4.65;4.05;;;;;;;;;;4994043;28;20113;-68
2021/11/05 02:16:46;;;;;;;4.50;4.10;;;;;;;;;;5008495;28;20112;-68
2021/11/05 02:19:15;;;;;;;9.52;4.05;;;;;;;;;;5014482;28;20574;-68
2021/11/05 02:21:42;;;;;;;4.57;3.90;;;;;;;;;;5004359;28;20497;-68
2021/11/05 02:24:09;;;;;;;4.68;4.18;;;;;;;;;;4995017;28;20054;-68
2021/11/05 02:26:36;;;;;;;5.00;4.30;;;;;;;;;;5003892;28;20049;-68
2021/11/05 02:29:07;;;;;;;5.30;4.40;;;;;;;;;;5018365;28;20045;-69
2021/11/05 02:31:34;;;;;;;5.13;4.63;;;;;;;;;;5015522;28;20551;-69
2021/11/05 02:34:01;;;;;;;4.82;3.75;;;;;;;;;;5014312;28;20053;-69
2021/11/05 02:36:28;;;;;;;4.85;4.32;;;;;;;;;;5015595;28;20050;-68
2021/11/05 02:38:55;;;;;;;5.68;4.70;;;;;;;;;;4995033;28;20387;-68
2021/11/05 02:41:22;;;;;;;6.40;4.65;;;;;;;;;;4994711;28;20054;-68
2021/11/05 02:43:49;;;;;;;5.40;4.88;;;;;;;;;;4994463;28;20058;-68
2021/11/05 02:46:16;;;;;;;4.32;3.92;;;;;;;;;;5000960;28;20537;-68
2021/11/05 02:48:42;;;;;;;5.82;4.30;;;;;;;;;;5003033;28;20097;-68
2021/11/05 02:51:09;;;;;;;4.90;4.40;;;;;;;;;;4993700;28;20058;-68
2021/11/05 02:53:38;;;;;;;4.68;4.18;;;;;;;;;;4993666;28;20049;-68
2021/11/05 02:56:05;;;;;;;5.07;4.53;;;;;;;;;;4993805;28;20050;-68
2021/11/05 02:58:32;;;;;;;4.85;4.30;;;;;;;;;;4993738;28;20050;-68
2021/11/05 03:00:59;;;;;;;5.22;4.18;;;;;;;;;;4993436;28;20050;-69
2021/11/05 03:03:26;;;;;;;4.18;3.78;;;;;;;;;;4993443;28;20073;-68
2021/11/05 03:05:53;;;;;;;5.10;4.05;;;;;;;;;;4993507;28;20046;-68
2021/11/05 03:08:20;;;;;;;4.88;4.28;;;;;;;;;;4993513;28;20046;-69
2021/11/05 03:10:47;;;;;;;5.88;4.30;;;;;;;;;;4993828;28;20046;-68
2021/11/05 03:13:13;;;;;;;5.70;4.00;;;;;;;;;;4993054;28;20054;-68
2021/11/05 03:15:40;;;;;;;4.65;4.13;;;;;;;;;;4993636;28;20046;-68
2021/11/05 03:18:06;;;;;;;6.18;4.53;;;;;;;;;;4993200;28;20587;-68
2021/11/05 03:20:33;;;;;;;6.22;4.72;;;;;;;;;;4992231;28;20468;-69
2021/11/05 03:23:00;;;;;;;4.72;4.22;;;;;;;;;;4993082;28;20101;-68
2021/11/05 03:25:27;;;;;;;6.28;5.00;;;;;;;;;;4993263;28;20128;-68
2021/11/05 03:27:53;;;;;;;5.57;4.72;;;;;;;;;;4993097;28;20050;-68
2021/11/05 03:30:20;;;;;;;5.78;4.53;;;;;;;;;;4993255;28;20104;-68
2021/11/05 03:32:46;;;;;;;5.43;4.40;;;;;;;;;;4992800;28;20050;-68
2021/11/05 03:35:14;;;;;;;6.00;4.03;;;;;;;;;;4993047;28;20054;-68
2021/11/05 03:37:41;;;;;;;5.85;4.43;;;;;;;;;;4991878;28;20480;-68
2021/11/05 03:40:10;;;;;;;5.85;4.72;;;;;;;;;;4993038;28;20046;-69
2021/11/05 03:42:37;;;;;;;7.80;5.05;;;;;;;;;;4993541;28;20050;-69
2021/11/05 03:45:05;;;;;;;5.13;4.63;;;;;;;;;;4991563;28;20109;-69
2021/11/05 03:47:32;;;;;;;6.32;5.05;;;;;;;;;;4992228;28;20104;-70
2021/11/05 03:49:59;;;;;;;8.88;4.88;;;;;;;;;;4976464;28;20428;-70
2021/11/05 03:52:26;;;;;;;5.40;4.35;;;;;;;;;;4992995;28;20055;-70
2021/11/05 03:54:52;;;;;;;7.05;4.78;;;;;;;;;;4991834;28;20046;-71
2021/11/05 03:57:19;;;;;;;4.80;4.28;;;;;;;;;;4993383;28;20105;-70
2021/11/05 03:59:46;;;;;;;6.10;4.97;;;;;;;;;;4993016;28;20050;-70
2021/11/05 04:02:12;;;;;;;5.10;4.45;;;;;;;;;;4992560;28;20058;-70
2021/11/05 04:04:39;;;;;;;8.38;4.75;;;;;;;;;;4991702;28;20050;-70
2021/11/05 04:07:06;;;;;;;6.60;5.03;;;;;;;;;;4992961;28;20469;-71
2021/11/05 04:09:33;;;;;;;5.57;5.05;;;;;;;;;;4992721;28;20050;-71
2021/11/05 04:11:59;;;;;;;7.13;4.57;;;;;;;;;;4992468;28;20109;-70
2021/11/05 04:14:26;;;;;;;8.30;5.22;;;;;;;;;;4993381;28;20469;-71
2021/11/05 04:16:53;;;;;;;6.70;5.03;;;;;;;;;;4991938;28;20050;-71
2021/11/05 04:19:20;;;;;;;6.18;5.57;;;;;;;;;;4976067;28;20082;-71
2021/11/05 04:21:47;;;;;;;7.03;5.90;;;;;;;;;;4992246;28;20050;-70
2021/11/05 04:24:14;;;;;;;9.77;6.30;;;;;;;;;;5011396;28;20089;-71
2021/11/05 04:26:40;;;;;;;6.93;5.78;;;;;;;;;;5012525;28;20467;-71
2021/11/05 04:29:07;;;;;;;7.20;5.53;;;;;;;;;;5012607;28;20058;-71
2021/11/05 04:31:34;;;;;;;6.63;5.72;;;;;;;;;;5011205;28;20053;-70
2021/11/05 04:34:00;;;;;;;6.32;5.60;;;;;;;;;;5011064;28;20088;-71
2021/11/05 04:36:27;;;;;;;6.95;6.25;;;;;;;;;;5011150;28;20061;-71
2021/11/05 04:38:53;;;;;;;7.13;5.80;;;;;;;;;;5012298;28;20343;-70
2021/11/05 04:41:22;;;;;;;7.05;5.72;;;;;;;;;;5010813;28;20061;-70
2021/11/05 04:43:50;;;;;;;7.65;5.35;;;;;;;;;;5011234;28;20108;-71
2021/11/05 04:46:18;;;;;;;6.20;4.97;;;;;;;;;;5012205;28;20057;-70
2021/11/05 04:48:44;;;;;;;7.57;5.00;;;;;;;;;;5011244;28;20049;-71
2021/11/05 04:51:11;;;;;;;5.85;5.07;;;;;;;;;;4994831;28;20054;-70
2021/11/05 04:53:38;;;;;;;6.18;5.50;;;;;;;;;;5011175;28;20062;-70
2021/11/05 04:56:05;;;;;;;9.50;5.65;;;;;;;;;;5012970;28;20054;-70
2021/11/05 04:58:32;;;;;;;7.40;5.55;;;;;;;;;;5012602;28;20042;-70
2021/11/05 05:00:58;;;;;;;7.20;5.80;;;;;;;;;;4995132;28;20058;-71
2021/11/05 05:03:25;;;;;;;6.35;5.63;;;;;;;;;;4978776;28;20051;-71
2021/11/05 05:05:52;;;;;;;8.00;5.55;;;;;;;;;;4996080;28;20054;-70
2021/11/05 05:08:18;;;;;;;8.38;6.10;;;;;;;;;;4995331;28;20101;-70
2021/11/05 05:10:45;;;;;;;6.60;5.53;;;;;;;;;;5000784;28;20045;-71
2021/11/05 05:13:12;;;;;;;7.07;5.43;;;;;;;;;;5014612;28;20111;-70
2021/11/05 05:15:39;;;;;;;7.07;5.50;;;;;;;;;;5010138;28;20054;-70
2021/11/05 05:18:06;;;;;;;7.15;5.40;;;;;;;;;;5014629;28;20181;-70
2021/11/05 05:20:32;;;;;;;8.27;5.25;;;;;;;;;;5016004;28;20551;-70
2021/11/05 05:22:59;;;;;;;6.70;5.32;;;;;;;;;;5015459;28;20053;-71
2021/11/05 05:25:26;;;;;;;6.38;5.13;;;;;;;;;;5016118;28;20054;-70
2021/11/05 05:27:52;;;;;;;5.90;4.93;;;;;;;;;;5015835;28;20107;-70
2021/11/05 05:30:20;;;;;;;6.90;5.00;;;;;;;;;;5015355;28;20565;-70
2021/11/05 05:32:49;;;;;;;5.78;5.22;;;;;;;;;;5014005;28;20050;-70
2021/11/05 05:35:16;;;;;;;6.25;4.82;;;;;;;;;;5014163;28;20282;-70
2021/11/05 05:37:43;;;;;;;5.00;4.50;;;;;;;;;;5014537;28;20054;-70
2021/11/05 05:40:10;;;;;;;8.00;5.25;;;;;;;;;;5015954;28;20077;-70
2021/11/05 05:42:37;;;;;;;6.15;5.28;;;;;;;;;;5015221;28;20053;-70
2021/11/05 05:45:05;;;;;;;5.88;5.07;;;;;;;;;;5015162;28;20508;-70
2021/11/05 05:47:33;;;;;;;5.78;5.18;;;;;;;;;;5014440;28;20069;-70
2021/11/05 05:50:00;;;;;;;7.70;5.97;;;;;;;;;;5013929;28;20053;-70
2021/11/05 05:52:27;;;;;;;5.82;5.00;;;;;;;;;;5014663;28;20084;-70
2021/11/05 05:54:53;;;;;;;5.93;5.00;;;;;;;;;;5014260;28;20046;-70
2021/11/05 05:57:20;;;;;;;8.35;5.15;;;;;;;;;;5014018;28;20452;-71
2021/11/05 05:59:46;;;;;;;5.72;4.38;;;;;;;;;;5015150;28;20050;-71
2021/11/05 06:02:13;;;;;;;6.72;5.28;;;;;;;;;;5014602;28;20464;-71
2021/11/05 06:04:40;;;;;;;6.93;4.85;;;;;;;;;;5014664;28;20053;-70
2021/11/05 06:07:06;;;;;;;7.15;4.72;;;;;;;;;;4996596;28;20501;-71
2021/11/05 06:09:33;;;;;;;6.60;4.82;;;;;;;;;;5015931;28;20064;-71
2021/11/05 06:12:00;;;;;;;5.63;4.50;;;;;;;;;;5014556;28;20126;-71
2021/11/05 06:14:26;;;;;;;5.85;4.38;;;;;;;;;;5014987;28;20050;-70
2021/11/05 06:16:54;;;;;;;4.70;3.90;;;;;;;;;;5013311;28;20050;-71
2021/11/05 06:19:21;;;;;;;5.60;4.00;;;;;;;;;;5015107;28;20050;-70
2021/11/05 06:21:47;;;;;;;5.13;4.30;;;;;;;;;;5014563;28;20570;-71
2021/11/05 06:24:14;;;;;;;5.38;4.18;;;;;;;;;;5015273;28;20112;-70
2021/11/05 06:26:40;;;;;;;4.78;4.07;;;;;;;;;;5014754;28;20111;-70
2021/11/05 06:29:07;;;;;;;6.53;4.00;;;;;;;;;;4997353;28;20088;-70
2021/11/05 06:31:34;;;;;;;5.05;4.05;;;;;;;;;;5014840;28;20054;-70
2021/11/05 06:34:01;;;;;;;4.93;4.40;;;;;;;;;;5000398;28;20477;-71
2021/11/05 06:36:28;;;;;;;6.80;4.22;;;;;;;;;;4993594;28;20054;-70
2021/11/05 06:38:56;;;;;;;6.70;3.97;;;;;;;;;;4993215;28;20047;-71
2021/11/05 06:41:23;;;;;;;8.93;4.20;;;;;;;;;;4993080;28;20050;-71
2021/11/05 06:43:50;;;;;;;5.60;4.20;;;;;;;;;;4993357;28;20568;-72
2021/11/05 06:46:17;;;;;;;5.80;4.30;;;;;;;;;;5005724;28;20050;-71
2021/11/05 06:48:43;;;;;;;5.88;4.93;;;;;;;;;;4994849;28;20100;-71
2021/11/05 06:51:10;;;;;;;4.85;4.25;;;;;;;;;;4994188;28;20082;-71
2021/11/05 06:53:37;;;;;;;7.95;4.20;;;;;;;;;;4993945;28;20050;-72
2021/11/05 06:56:04;;;;;;;6.15;3.95;;;;;;;;;;4992531;28;20051;-72
2021/11/05 06:58:34;;;;;;;6.18;4.40;;;;;;;;;;5005925;28;20107;-72
2021/11/05 07:01:02;;;;;;;5.10;4.50;;;;;;;;;;5011007;28;20045;-71
2021/11/05 07:03:29;;;;;;;4.82;3.83;;;;;;;;;;5011446;28;20057;-71
2021/11/05 07:05:58;;;;;;;5.38;4.40;;;;;;;;;;5011270;28;20057;-71
2021/11/05 07:08:25;;;;;;;7.05;4.20;;;;;;;;;;5011315;28;20050;-71
2021/11/05 07:10:53;;;;;;;5.90;4.10;;;;;;;;;;4995890;28;20129;-71
2021/11/05 07:13:21;;;;;;;5.30;3.97;;;;;;;;;;4991119;28;20497;-72
2021/11/05 07:15:47;;;;;;;6.50;4.85;;;;;;;;;;4991480;28;20560;-71
2021/11/05 07:18:15;;;;;;;8.25;5.35;;;;;;;;;;4990892;28;20050;-71
2021/11/05 07:20:43;;;;;;;5.45;4.45;;;;;;;;;;4992693;28;20050;-71
2021/11/05 07:23:11;;;;;;;5.85;4.10;;;;;;;;;;5010190;28;20046;-72
2021/11/05 07:25:38;;;;;;;4.47;4.07;;;;;;;;;;5010863;28;20313;-72
2021/11/05 07:28:05;;;;;;;7.60;4.32;;;;;;;;;;5010807;28;20104;-71
2021/11/05 07:30:32;;;;;;;6.82;4.03;;;;;;;;;;5010646;28;20045;-72
2021/11/05 07:32:58;;;;;;;5.80;4.32;;;;;;;;;;5008919;28;20054;-71
2021/11/05 07:35:25;;;;;;;5.55;4.00;;;;;;;;;;5010441;28;20046;-71
2021/11/05 07:37:52;;;;;;;5.40;4.60;;;;;;;;;;5010546;28;20050;-71
2021/11/05 07:40:19;;;;;;;5.78;4.70;;;;;;;;;;5010356;28;20575;-71
2021/11/05 07:42:46;;;;;;;5.97;4.00;;;;;;;;;;5010327;28;20111;-71
2021/11/05 07:45:14;;;;;;;6.57;4.53;;;;;;;;;;5010586;28;20104;-71
2021/11/05 07:47:42;;;;;;;4.82;4.25;;;;;;;;;;5010330;28;20582;-71
2021/11/05 07:50:10;;;;;;;6.88;4.30;;;;;;;;;;5010134;28;20054;-71
2021/11/05 07:52:37;;;;;;;5.65;4.45;;;;;;;;;;5009998;28;20119;-71
2021/11/05 07:55:06;;;;;;;5.15;4.43;;;;;;;;;;5010179;28;20108;-71
2021/11/05 07:57:34;;;;;;;5.50;3.70;;;;;;;;;;5010294;28;20053;-71
2021/11/05 08:00:01;;;;;;;4.82;4.32;;;;;;;;;;5010101;28;20050;-71
2021/11/05 08:02:28;;;;;;;5.22;4.72;;;;;;;;;;5009500;28;20050;-75
2021/11/05 08:04:54;;;;;;;6.78;4.53;;;;;;;;;;5010214;28;20468;-72
2021/11/05 08:07:23;;;;;;;5.68;4.47;;;;;;;;;;5010054;28;20060;-72
2021/11/05 08:09:49;;;;;;;6.03;5.05;;;;;;;;;;5010201;28;20123;-71
2021/11/05 08:12:16;;;;;;;5.32;3.97;;;;;;;;;;4991408;28;20054;-71
2021/11/05 08:14:43;;;;;;;5.32;4.10;;;;;;;;;;4989297;28;20054;-68
2021/11/05 08:17:10;;;;;;;5.53;4.22;;;;;;;;;;5000297;28;20416;-68
2021/11/05 08:19:37;;;;;;;5.15;4.65;;;;;;;;;;4997615;28;20080;-70
2021/11/05 08:22:03;;;;;;;4.88;4.00;;;;;;;;;;4996263;28;20049;-69
2021/11/05 08:24:30;;;;;;;9.30;5.10;;;;;;;;;;4996853;28;20049;-69
2021/11/05 08:26:57;;;;;;;4.93;4.43;;;;;;;;;;4995326;28;20100;-69
2021/11/05 08:29:24;;;;;;;8.60;4.63;;;;;;;;;;4996296;28;20490;-70
2021/11/05 08:31:52;;;;;;;6.47;4.75;;;;;;;;;;4999074;28;20108;-69
2021/11/05 08:34:19;;;;;;;5.38;4.88;;;;;;;;;;5001612;28;20054;-69
2021/11/05 08:36:46;;;;;;;6.57;4.97;;;;;;;;;;5002115;28;20278;-69
2021/11/05 08:39:12;;;;;;;9.65;5.03;;;;;;;;;;4999170;28;20497;-69
2021/11/05 08:41:39;;;;;;;8.75;5.07;;;;;;;;;;5002462;28;20050;-69
2021/11/05 08:44:06;;;;;;;7.20;4.60;;;;;;;;;;5003675;28;20452;-69
2021/11/05 08:46:33;;;;;;;4.55;3.72;;;;;;;;;;5003791;28;20136;-68
2021/11/05 08:49:07;;;;;;;6.85;4.03;;;;;;;;;;4998948;28;20089;-68
2021/11/05 08:51:34;;;;;;;5.18;4.22;;;;;;;;;;5000555;28;20049;-68
2021/11/05 08:54:02;;;;;;;5.28;4.55;;;;;;;;;;4998334;28;20058;-68
2021/11/05 08:56:28;;;;;;;5.00;3.83;;;;;;;;;;5002200;28;20053;-69
2021/11/05 08:58:55;;;;;;;4.75;3.92;;;;;;;;;;4999279;28;20551;-70
2021/11/05 09:01:22;;;;;;;3.60;3.05;;;;;;;;;;5003025;28;20508;-69
2021/11/05 09:03:48;;;;;;;11.32;5.53;;;;;;;;;;5001449;28;20053;-73
2021/11/05 09:06:15;;;;;;;6.63;4.57;;;;;;;;;;5005615;28;20050;-72
2021/11/05 09:08:44;;;;;;;5.10;4.10;;;;;;;;;;5001405;28;20046;-71
2021/11/05 09:11:11;;;;;;;4.47;3.63;;;;;;;;;;5010123;28;20584;-72
2021/11/05 09:13:38;;;;;;;4.78;3.67;;;;;;;;;;4989402;28;20045;-69
2021/11/05 09:16:05;;;;;;;3.70;3.22;;;;;;;;;;5041916;28;20095;-71
2021/11/05 09:18:31;;;;;;;4.70;2.95;;;;;;;;;;5039756;28;20053;-71
2021/11/05 09:21:00;;;;;;;3.90;3.05;;;;;;;;;;5037420;28;20123;-69
2021/11/05 09:23:27;;;;;;;3.78;3.03;;;;;;;;;;5039280;28;20049;-69
2021/11/05 09:25:54;;;;;;;3.08;2.80;;;;;;;;;;5036543;28;20569;-70
2021/11/05 09:28:21;;;;;;;5.15;2.70;;;;;;;;;;5040034;28;20049;-69
2021/11/05 09:30:47;;;;;;;2.55;2.30;;;;;;;;;;5041661;28;20129;-70
2021/11/05 09:33:14;;;;;;;3.50;2.45;;;;;;;;;;5040207;28;20048;-70
2021/11/05 09:35:41;;;;;;;6.32;2.63;;;;;;;;;;5041927;28;20053;-71
2021/11/05 09:38:08;;;;;;;3.80;2.78;;;;;;;;;;5036805;28;20114;-69
2021/11/05 09:40:35;;;;;;;4.03;2.85;;;;;;;;;;5038602;28;20130;-70
2021/11/05 09:43:01;;;;;;;3.92;2.53;;;;;;;;;;5036433;28;20130;-69
2021/11/05 09:45:31;;;;;;;2.70;2.47;;;;;;;;;;5040980;28;20060;-69
2021/11/05 09:47:59;;;;;;;3.47;3.17;;;;;;;;;;5041497;28;20057;-69
2021/11/05 09:50:27;;;;;;;3.78;2.83;;;;;;;;;;5046110;28;20041;-70
2021/11/05 09:52:53;;;;;;;2.70;2.50;;;;;;;;;;5039129;28;20045;-69
2021/11/05 09:55:20;;;;;;;2.47;2.28;;;;;;;;;;5041111;28;20056;-70
2021/11/05 09:57:47;;;;;;;3.10;2.80;;;;;;;;;;5039435;28;20095;-70
2021/11/05 10:00:21;;;;;;;2.75;2.53;;;;;;;;;;5043370;28;20389;-70
2021/11/05 10:02:48;;;;;;;4.43;2.92;;;;;;;;;;5039853;28;20091;-69
2021/11/05 10:05:16;;;;;;;3.55;2.92;;;;;;;;;;5039791;28;20103;-69
2021/11/05 10:07:47;;;;;;;4.30;3.20;;;;;;;;;;5040954;28;20045;-69
2021/11/05 10:10:14;;;;;;;4.63;4.05;;;;;;;;;;5041911;28;20458;-69
2021/11/05 10:13:01;;;;;;;4.28;3.33;;;;;;;;;;5040646;28;20045;-69
2021/11/05 10:15:35;;;;;;;4.20;3.58;;;;;;;;;;5040903;28;20051;-69
2021/11/05 10:18:11;;;;;;;4.35;3.95;;;;;;;;;;5038837;28;20099;-69
2021/11/05 10:20:37;;;;;;;5.97;3.92;;;;;;;;;;5042088;28;20041;-69
2021/11/05 10:23:06;;;;;;;4.78;3.78;;;;;;;;;;5039467;28;20482;-69
2021/11/05 10:25:37;;;;;;;4.70;3.42;;;;;;;;;;5045712;28;20496;-69
2021/11/05 10:28:24;;;;;;;3.75;3.45;;;;;;;;;;5035952;28;20049;-69
2021/11/05 10:30:51;;;;;;;5.25;4.55;;;;;;;;;;5039587;28;20046;-69
2021/11/05 10:33:19;;;;;;;5.60;4.85;;;;;;;;;;5039151;28;20122;-69
2021/11/05 10:35:48;;;;;;;7.03;5.45;;;;;;;;;;5042558;28;20060;-69
2021/11/05 10:38:32;;;;;;;6.40;5.65;;;;;;;;;;5040511;28;20066;-69
2021/11/05 10:41:01;;;;;;;5.88;5.30;;;;;;;;;;5039119;28;20397;-69
2021/11/05 10:43:45;;;;;;;6.95;4.40;;;;;;;;;;5041806;28;20083;-69
2021/11/05 10:46:39;;;;;;;5.82;5.22;;;;;;;;;;5040717;28;20053;-69
2021/11/05 10:49:26;;;;;;;5.50;4.82;;;;;;;;;;5041618;28;20578;-69
2021/11/05 10:52:18;;;;;;;5.63;4.97;;;;;;;;;;5037909;28;20046;-69
2021/11/05 10:54:55;;;;;;;6.80;5.45;;;;;;;;;;5038248;28;20510;-69
2021/11/05 10:57:37;;;;;;;7.38;5.20;;;;;;;;;;5043744;28;20553;-69
2021/11/05 11:00:40;;;;;;;6.05;5.45;;;;;;;;;;5042096;28;20110;-69
2021/11/05 11:03:21;;;;;;;8.23;5.50;;;;;;;;;;5048137;28;20080;-69
2021/11/05 11:05:48;;;;;;;5.70;5.13;;;;;;;;;;5036778;28;20052;-69
2021/11/05 11:08:29;;;;;;;4.82;4.32;;;;;;;;;;5037427;28;20049;-69
2021/11/05 11:11:20;;;;;;;6.13;4.88;;;;;;;;;;5043739;28;20459;-69
2021/11/05 11:13:57;;;;;;;5.22;4.60;;;;;;;;;;5040501;28;20491;-69
2021/11/05 11:16:32;;;;;;;5.22;4.57;;;;;;;;;;5039922;28;20049;-69
2021/11/05 11:19:00;;;;;;;6.20;5.13;;;;;;;;;;5037638;28;20072;-69
2021/11/05 11:21:33;;;;;;;5.05;4.55;;;;;;;;;;5040811;28;20041;-69
2021/11/05 11:24:01;;;;;;;5.40;4.50;;;;;;;;;;5040690;28;20060;-69
2021/11/05 11:26:28;;;;;;;7.10;4.25;;;;;;;;;;5038584;28;20057;-69
2021/11/05 11:28:55;;;;;;;4.22;3.83;;;;;;;;;;5040824;28;20045;-69
2021/11/05 11:31:22;;;;;;;4.45;4.05;;;;;;;;;;5039576;28;20044;-69
2021/11/05 11:33:50;;;;;;;4.30;3.72;;;;;;;;;;5040273;28;20045;-72
2021/11/05 11:36:19;;;;;;;4.95;4.45;;;;;;;;;;5040579;28;20053;-69
2021/11/05 11:38:50;;;;;;;6.35;5.55;;;;;;;;;;5041017;28;20053;-70
2021/11/05 11:41:18;;;;;;;5.18;4.68;;;;;;;;;;5036038;28;20050;-69
2021/11/05 11:43:45;;;;;;;5.80;5.15;;;;;;;;;;5036373;28;20103;-69
2021/11/05 11:46:13;;;;;;;8.73;5.07;;;;;;;;;;5038100;28;20058;-69
2021/11/05 11:48:50;;;;;;;5.97;5.22;;;;;;;;;;5038303;28;20110;-69
2021/11/05 11:51:30;;;;;;;5.68;4.90;;;;;;;;;;5038434;28;20045;-68
2021/11/05 11:54:02;;;;;;;5.25;4.65;;;;;;;;;;5035510;28;20123;-69
2021/11/05 11:56:35;;;;;;;5.32;4.72;;;;;;;;;;5035611;28;20562;-69
2021/11/05 11:59:07;;;;;;;7.13;5.45;;;;;;;;;;5038192;28;20053;-69
2021/11/05 12:01:39;;;;;;;6.30;5.18;;;;;;;;;;5036852;28;20099;-69
2021/11/05 12:04:10;;;;;;;6.88;5.57;;;;;;;;;;5040398;28;20424;-69
2021/11/05 12:06:46;;;;;;;6.18;5.03;;;;;;;;;;5039620;28;20056;-69
2021/11/05 12:09:23;;;;;;;7.38;5.00;;;;;;;;;;5034930;28;20045;-69
2021/11/05 12:12:13;;;;;;;7.57;5.28;;;;;;;;;;5041477;28;20269;-68
2021/11/05 12:15:08;;;;;;;5.43;4.50;;;;;;;;;;5038258;28;20048;-69
2021/11/05 12:17:50;;;;;;;7.20;5.05;;;;;;;;;;5038149;28;20049;-69
2021/11/05 12:20:29;;;;;;;7.90;5.10;;;;;;;;;;5038127;28;20492;-69
2021/11/05 12:23:08;;;;;;;6.15;5.38;;;;;;;;;;5037731;28;20052;-69
2021/11/05 12:25:56;;;;;;;6.50;4.90;;;;;;;;;;5035927;28;20626;-69
2021/11/05 12:28:28;;;;;;;5.78;4.43;;;;;;;;;;5036392;28;20056;-68
2021/11/05 12:31:26;;;;;;;6.57;4.80;;;;;;;;;;5035304;28;20083;-66
2021/11/05 12:33:54;;;;;;;5.85;4.88;;;;;;;;;;5038983;28;20327;-66
2021/11/05 12:36:49;;;;;;;5.22;4.72;;;;;;;;;;5037242;28;20056;-69
2021/11/05 12:39:30;;;;;;;4.72;4.25;;;;;;;;;;5036520;28;20496;-69
2021/11/05 12:42:11;;;;;;;6.57;5.60;;;;;;;;;;5037176;28;20053;-69
2021/11/05 12:44:55;;;;;;;5.45;4.80;;;;;;;;;;5040477;28;20045;-69
2021/11/05 12:47:47;;;;;;;6.78;5.43;;;;;;;;;;5036623;28;20107;-68
2021/11/05 12:50:22;;;;;;;7.47;5.57;;;;;;;;;;5047321;28;20049;-72
2021/11/05 12:53:04;;;;;;;8.32;5.82;;;;;;;;;;5038200;28;20511;-71
2021/11/05 12:55:36;;;;;;;6.53;5.30;;;;;;;;;;5043065;28;20057;-71
2021/11/05 12:58:05;;;;;;;7.40;6.00;;;;;;;;;;5040156;28;20056;-71
2021/11/05 13:00:35;;;;;;;6.88;6.03;;;;;;;;;;5036248;28;20054;-72
2021/11/05 13:03:03;;;;;;;7.35;6.47;;;;;;;;;;5037845;28;20060;-72
2021/11/05 13:05:30;;;;;;;7.93;6.95;;;;;;;;;;5036786;28;20049;-71
2021/11/05 13:08:07;;;;;;;8.73;6.57;;;;;;;;;;5039523;28;20045;-71
2021/11/05 13:10:38;;;;;;;9.30;7.55;;;;;;;;;;5044068;28;20056;-71
2021/11/05 13:13:06;;;;;;;9.43;7.57;;;;;;;;;;5042312;28;20049;-72
2021/11/05 13:15:38;;;;;;;10.48;7.35;;;;;;;;;;5039629;28;20077;-70
2021/11/05 13:18:06;;;;;;;10.77;8.10;;;;;;;;;;5039105;28;20505;-70
2021/11/05 13:20:43;;;;;;;9.57;7.88;;;;;;;;;;5042774;28;20084;-70
2021/11/05 13:23:14;;;;;;;9.18;7.22;;;;;;;;;;5049971;28;20054;-70
2021/11/05 13:25:44;;;;;;;10.32;7.78;;;;;;;;;;5038798;28;20103;-72
2021/11/05 13:28:19;;;;;;;7.78;6.63;;;;;;;;;;5042899;28;20076;-72
2021/11/05 13:31:01;;;;;;;9.70;7.10;;;;;;;;;;5043086;28;20561;-71
2021/11/05 13:33:30;;;;;;;7.28;6.57;;;;;;;;;;5039346;28;20463;-72
2021/11/05 13:36:06;;;;;;;8.90;7.22;;;;;;;;;;5039026;28;20053;-72
2021/11/05 13:38:50;;;;;;;9.57;7.50;;;;;;;;;;5040223;28;20053;-72
2021/11/05 13:41:22;;;;;;;10.45;8.23;;;;;;;;;;5041378;28;20385;-72
2021/11/05 13:43:52;;;;;;;11.98;9.82;;;;;;;;;;5039763;28;20072;-71
2021/11/05 13:46:21;;;;;;;11.23;8.57;;;;;;;;;;5043419;28;20195;-73
2021/11/05 13:48:52;;;;;;;12.15;8.52;;;;;;;;;;5040986;28;20057;-75
2021/11/05 13:51:24;;;;;;;11.95;8.65;;;;;;;;;;5041644;28;20452;-77
2021/11/05 13:53:55;;;;;;;11.40;8.57;;;;;;;;;;5039103;28;20061;-77
2021/11/05 13:56:29;;;;;;;11.75;10.02;;;;;;;;;;5041200;28;20061;-72
2021/11/05 13:58:58;;;;;;;11.63;9.40;;;;;;;;;;5043564;28;20053;-71
2021/11/05 14:01:26;;;;;;;11.70;9.80;;;;;;;;;;5040469;28;20107;-74
2021/11/05 14:03:58;;;;;;;11.57;9.40;;;;;;;;;;5039136;28;20041;-73
2021/11/05 14:06:26;;;;;;;13.05;10.05;;;;;;;;;;5039553;28;20049;-73
2021/11/05 14:08:58;;;;;;;15.45;11.07;;;;;;;;;;5040218;28;20049;-73
2021/11/05 14:11:45;;;;;;;15.30;11.07;;;;;;;;;;5045705;28;20048;-71
2021/11/05 14:14:33;;;;;;;14.40;9.98;;;;;;;;;;5045277;28;20080;-72
2021/11/05 14:17:24;;;;;;;15.25;10.40;;;;;;;;;;5039778;28;20508;-75
2021/11/05 14:19:55;;;;;;;14.63;10.68;;;;;;;;;;5044372;28;20049;-71
2021/11/05 14:22:44;;;;;;;14.18;11.18;;;;;;;;;;5038099;28;20037;-70
2021/11/05 14:25:17;;;;;;;15.00;10.75;;;;;;;;;;5045304;28;20068;-69
2021/11/05 14:27:45;;;;;;;15.65;10.93;;;;;;;;;;5038941;28;20056;-71
2021/11/05 14:30:26;;;;;;;13.75;11.20;;;;;;;;;;5039683;28;20144;-71
2021/11/05 14:32:54;;;;;;;13.07;10.48;;;;;;;;;;5038222;28;20045;-68
2021/11/05 14:35:29;;;;;;;15.75;11.55;;;;;;;;;;5042082;28;20128;-69
2021/11/05 14:37:58;;;;;;;13.02;10.95;;;;;;;;;;5043383;28;20053;-71
2021/11/05 14:40:27;;;;;;;15.10;11.63;;;;;;;;;;5039816;28;20499;-70
2021/11/05 14:43:03;;;;;;;15.13;10.50;;;;;;;;;;5038278;28;20250;-69
2021/11/05 14:45:38;;;;;;;13.68;10.18;;;;;;;;;;5040019;28;20106;-70
2021/11/05 14:48:11;;;;;;;13.68;10.50;;;;;;;;;;5038987;28;20046;-70
2021/11/05 14:50:59;;;;;;;13.77;10.23;;;;;;;;;;5037856;28;20041;-70
2021/11/05 14:53:33;;;;;;;12.45;9.38;;;;;;;;;;5041082;28;20045;-72
2021/11/05 14:56:03;;;;;;;12.80;10.02;;;;;;;;;;5043718;28;20095;-68